الصفحة الرئيسية
METAR-TAF:

METAR-TAF

مطار :

Radom-Sadków

رادوم, بولندا

دائرة عرض: 51-23-21N, خط طول: 21-12-49E, ارتفاع: 186 متر

مراقبة الطقس الحالي

تاريخ ووقت الإصدار 16 دقيقة قبل الساعة 12:00UTC
ريح 3 عقدةمن اتجاهات متغيرة
درجة الحرارة 27°درجة مئوية
الرطوبة 42%
ضغط 1014 hPa
الرؤية 10 كم أو أكثر
الغيوم لا تقل 1500 م ولا وجود لمزنة ركامية السحاب الأسود

METAR: EPRA 201200Z VRB03KT CAVOK 27/13 Q1014

زمن: 14:16 (12:16 UTC)

توقعات

تاريخ ووقت الإصدار 46 دقيقة قبل الساعة 11:30UTC
التوقعات صالحة من20 الساعة 12 UTC إلى 20 الساعة 21 UTC
ريح 3 عقدةمن اتجاهات متغيرة
الرؤية 10 كم أو أكثر
الغيوم لا تقل 1500 م ولا وجود لمزنة ركامية السحاب الأسود

TAF: EPRA 201130Z 2012/2021 VRB03KT CAVOK

أرصاد الطقس والتوقعات من أكثر من 4000 مطار (تقارير الطقس للمطار METAR والتنبؤ بالطقس بالمطارTAF).

المحطات المتاحة هي النقط الصفراء والحمراء على الخريطة.

حرك المؤشر فوق النقطة لمعرفة اسم المحطة.

ثم انقر لمعرفة أرصاد وتوقعات الطقس.

لتغيير الخارطة: اضغط على الأزرار الخضراء مع رمز الصليب الأسود للتكبير. على الزر الأخضر مع شرطة للتصغير، أو على الأسهم الخضراء للخرائط المجاورة.


METAR-TAF: